No particular awareness of the weather is required.    There are no Weather-warnings


Meteo18 Weather Cam more information Meteo18 Weather Cam


Thunder radar more information blitzortung!


Rain radar more information rain snow radar


Visit our other weather sites:

Template documentation
and downloads

And another site



Weather Underground History page Text

Daily Summary for November 10, 2017 Units:  Both    English   Metric
« Previous Day
Next Day »
Daily Weekly Monthly Yearly Custom
  High: Low: Average:
Temperature: TemperatureC °F /  -17.8 °C 4.8 °F /  -15.1 °C 8.5 °F /  -13.1 °C
Dew Point: DewpointC °F /  -17.8 °C 4.2 °F /  -15.4 °C 7.6 °F /  -13.6 °C
Humidity: Humidity % 85 % 94 %
Wind Speed: WindSpeedKMH mph /  0 km/h - 6.7 mph /  10.8 km/h
Wind Gust: WindSpeedGustKMH mph /  0 km/h - -
Wind:- - West
Pressure: PressurehPa in /  0 hPa 1023.2 in /  34645.6 hPa -
Precipitation: 0.5 in /  12.7 mm    
Historical Graphs
 
 
Tabular Data for November 10, 2017
Time Temperature Dew Point Pressure Wind Wind Speed Wind Gust Humidity Rainfall Rate (Hourly)
TemperatureC °F /  -17.8 °C DewpointC °F /  -17.8 °C PressurehPa in /  0 hPa Calm     Humidity % HourlyPrecipMM in /  0 mm
00:02 5.2 °F /  -14.9 °C 4.3 °F /  -15.4 °C 1028.0 in /  34808.1 hPa Calm   4.8 mph /  7.7 km/h 94 % 0.0 in /  0 mm
00:07 5.2 °F /  -14.9 °C 4.3 °F /  -15.4 °C 1028.0 in /  34808.1 hPa Calm   1.6 mph /  2.6 km/h 94 % 0.0 in /  0 mm
00:17 5.3 °F /  -14.8 °C 4.4 °F /  -15.3 °C 1028.0 in /  34808.1 hPa Calm   1.6 mph /  2.6 km/h 94 % 0.0 in /  0 mm
00:22 5.2 °F /  -14.9 °C 4.3 °F /  -15.4 °C 1028.3 in /  34818.2 hPa Calm   1.6 mph /  2.6 km/h 94 % 0.0 in /  0 mm
00:32 5.4 °F /  -14.8 °C 4.7 °F /  -15.2 °C 1028.3 in /  34818.2 hPa Calm   4.8 mph /  7.7 km/h 95 % 0.0 in /  0 mm
00:42 5.4 °F /  -14.8 °C 4.7 °F /  -15.2 °C 1028.0 in /  34808.1 hPa Calm   4.8 mph /  7.7 km/h 95 % 0.0 in /  0 mm
00:47 5.4 °F /  -14.8 °C 4.7 °F /  -15.2 °C 1028.3 in /  34818.2 hPa Calm   1.6 mph /  2.6 km/h 95 % 0.0 in /  0 mm
00:52 5.5 °F /  -14.7 °C 4.8 °F /  -15.1 °C 1028.3 in /  34818.2 hPa WSW 3.2 mph /  5.1 km/h 3.2 mph /  5.1 km/h 95 % 0.0 in /  0 mm
00:57 5.6 °F /  -14.7 °C 4.9 °F /  -15.1 °C 1028.0 in /  34808.1 hPa SSW 1.6 mph /  2.6 km/h 6.4 mph /  10.3 km/h 95 % 0.0 in /  0 mm
01:02 5.6 °F /  -14.7 °C 4.9 °F /  -15.1 °C 1028.3 in /  34818.2 hPa SW 3.2 mph /  5.1 km/h 6.4 mph /  10.3 km/h 95 % 0.0 in /  0 mm
01:07 5.6 °F /  -14.7 °C 4.9 °F /  -15.1 °C 1028.3 in /  34818.2 hPa WSW 1.6 mph /  2.6 km/h 8.0 mph /  12.9 km/h 95 % 0.0 in /  0 mm
01:12 5.6 °F /  -14.7 °C 4.9 °F /  -15.1 °C 1028.3 in /  34818.2 hPa Calm   8.0 mph /  12.9 km/h 95 % 0.0 in /  0 mm
01:17 5.6 °F /  -14.7 °C 4.9 °F /  -15.1 °C 1028.3 in /  34818.2 hPa SW 1.6 mph /  2.6 km/h 3.2 mph /  5.1 km/h 95 % 0.0 in /  0 mm
01:22 5.7 °F /  -14.6 °C 5.0 °F /  -15 °C 1028.3 in /  34818.2 hPa SW 3.2 mph /  5.1 km/h 4.8 mph /  7.7 km/h 95 % 0.0 in /  0 mm
01:27 5.7 °F /  -14.6 °C 5.0 °F /  -15 °C 1028.3 in /  34818.2 hPa SSW 1.6 mph /  2.6 km/h 4.8 mph /  7.7 km/h 95 % 0.0 in /  0 mm
01:32 5.7 °F /  -14.6 °C 5.0 °F /  -15 °C 1028.3 in /  34818.2 hPa SSW 3.2 mph /  5.1 km/h 4.8 mph /  7.7 km/h 95 % 0.0 in /  0 mm
01:37 5.6 °F /  -14.7 °C 4.9 °F /  -15.1 °C 1028.3 in /  34818.2 hPa SSW 3.2 mph /  5.1 km/h 6.4 mph /  10.3 km/h 95 % 0.0 in /  0 mm
01:42 5.6 °F /  -14.7 °C 4.9 °F /  -15.1 °C 1028.0 in /  34808.1 hPa SW 4.8 mph /  7.7 km/h 6.4 mph /  10.3 km/h 95 % 0.0 in /  0 mm
01:47 5.6 °F /  -14.7 °C 4.9 °F /  -15.1 °C 1028.0 in /  34808.1 hPa South 3.2 mph /  5.1 km/h 6.4 mph /  10.3 km/h 95 % 0.0 in /  0 mm
01:52 5.5 °F /  -14.7 °C 4.8 °F /  -15.1 °C 1028.0 in /  34808.1 hPa South 3.2 mph /  5.1 km/h 6.4 mph /  10.3 km/h 95 % 0.0 in /  0 mm
01:57 5.5 °F /  -14.7 °C 4.8 °F /  -15.1 °C 1028.0 in /  34808.1 hPa SSW 1.6 mph /  2.6 km/h 6.4 mph /  10.3 km/h 95 % 0.0 in /  0 mm
02:02 5.4 °F /  -14.8 °C 4.7 °F /  -15.2 °C 1028.3 in /  34818.2 hPa Calm   6.4 mph /  10.3 km/h 95 % 0.0 in /  0 mm
02:07 5.4 °F /  -14.8 °C 4.7 °F /  -15.2 °C 1028.0 in /  34808.1 hPa SSW 1.6 mph /  2.6 km/h 4.8 mph /  7.7 km/h 95 % 0.0 in /  0 mm
02:12 5.4 °F /  -14.8 °C 4.7 °F /  -15.2 °C 1027.7 in /  34797.9 hPa SSE 1.6 mph /  2.6 km/h 3.2 mph /  5.1 km/h 95 % 0.0 in /  0 mm
02:17 5.4 °F /  -14.8 °C 4.7 °F /  -15.2 °C 1027.7 in /  34797.9 hPa SSW 3.2 mph /  5.1 km/h 3.2 mph /  5.1 km/h 95 % 0.0 in /  0 mm
02:22 5.3 °F /  -14.8 °C 4.6 °F /  -15.2 °C 1027.3 in /  34784.4 hPa SSW 8.0 mph /  12.9 km/h 8.0 mph /  12.9 km/h 95 % 0.0 in /  0 mm
02:27 5.3 °F /  -14.8 °C 4.6 °F /  -15.2 °C 1027.0 in /  34774.2 hPa South 4.8 mph /  7.7 km/h 8.0 mph /  12.9 km/h 95 % 0.0 in /  0 mm
02:32 5.2 °F /  -14.9 °C 4.5 °F /  -15.3 °C 1027.0 in /  34774.2 hPa SW 4.8 mph /  7.7 km/h 8.0 mph /  12.9 km/h 95 % 0.0 in /  0 mm
02:37 5.1 °F /  -14.9 °C 4.5 °F /  -15.3 °C 1027.0 in /  34774.2 hPa SW 6.4 mph /  10.3 km/h 9.7 mph /  15.6 km/h 96 % 0.0 in /  0 mm
02:42 5.1 °F /  -14.9 °C 4.5 °F /  -15.3 °C 1027.3 in /  34784.4 hPa Calm   9.7 mph /  15.6 km/h 96 % 0.0 in /  0 mm
02:47 5.2 °F /  -14.9 °C 4.6 °F /  -15.2 °C 1027.3 in /  34784.4 hPa Calm   8.0 mph /  12.9 km/h 96 % 0.0 in /  0 mm
02:52 5.2 °F /  -14.9 °C 4.6 °F /  -15.2 °C 1027.3 in /  34784.4 hPa Calm   6.4 mph /  10.3 km/h 96 % 0.0 in /  0 mm
02:57 5.2 °F /  -14.9 °C 4.6 °F /  -15.2 °C 1027.3 in /  34784.4 hPa SSW 3.2 mph /  5.1 km/h 6.4 mph /  10.3 km/h 96 % 0.0 in /  0 mm
03:02 5.2 °F /  -14.9 °C 4.6 °F /  -15.2 °C 1027.0 in /  34774.2 hPa SW 1.6 mph /  2.6 km/h 9.7 mph /  15.6 km/h 96 % 0.0 in /  0 mm
03:07 5.2 °F /  -14.9 °C 4.6 °F /  -15.2 °C 1027.0 in /  34774.2 hPa South 6.4 mph /  10.3 km/h 9.7 mph /  15.6 km/h 96 % 0.0 in /  0 mm
03:12 4.8 °F /  -15.1 °C 4.2 °F /  -15.4 °C 1027.0 in /  34774.2 hPa SSW 1.6 mph /  2.6 km/h 9.7 mph /  15.6 km/h 96 % 0.0 in /  0 mm
09:07 6.4 °F /  -14.2 °C 6.0 °F /  -14.4 °C 1025.3 in /  34716.7 hPa SW 12.9 mph /  20.8 km/h 14.5 mph /  23.3 km/h 97 % 0.0 in /  0 mm
09:12 6.4 °F /  -14.2 °C 6.0 °F /  -14.4 °C 1025.3 in /  34716.7 hPa SSW 9.7 mph /  15.6 km/h 20.9 mph /  33.6 km/h 97 % 0.0 in /  0 mm
09:17 6.5 °F /  -14.2 °C 6.1 °F /  -14.4 °C 1025.3 in /  34716.7 hPa SW 12.9 mph /  20.8 km/h 20.9 mph /  33.6 km/h 97 % 0.0 in /  0 mm
09:27 6.7 °F /  -14.1 °C 6.1 °F /  -14.4 °C 1025.3 in /  34716.7 hPa WSW 6.4 mph /  10.3 km/h 24.1 mph /  38.8 km/h 96 % 0.0 in /  0 mm
09:32 6.7 °F /  -14.1 °C 6.1 °F /  -14.4 °C 1025.6 in /  34726.8 hPa WSW 14.5 mph /  23.3 km/h 24.1 mph /  38.8 km/h 96 % 0.0 in /  0 mm
09:42 6.8 °F /  -14 °C 6.2 °F /  -14.3 °C 1025.6 in /  34726.8 hPa SW 17.7 mph /  28.5 km/h 22.5 mph /  36.2 km/h 96 % 0.0 in /  0 mm
09:47 6.8 °F /  -14 °C 6.2 °F /  -14.3 °C 1025.6 in /  34726.8 hPa West 6.4 mph /  10.3 km/h 22.5 mph /  36.2 km/h 96 % 0.0 in /  0 mm
09:52 6.8 °F /  -14 °C 6.2 °F /  -14.3 °C 1025.6 in /  34726.8 hPa Calm   22.5 mph /  36.2 km/h 96 % 0.0 in /  0 mm
09:57 6.9 °F /  -13.9 °C 6.3 °F /  -14.3 °C 1025.6 in /  34726.8 hPa SW 12.9 mph /  20.8 km/h 20.9 mph /  33.6 km/h 96 % 0.0 in /  0 mm
10:02 6.9 °F /  -13.9 °C 6.3 °F /  -14.3 °C 1025.6 in /  34726.8 hPa WSW 14.5 mph /  23.3 km/h 19.3 mph /  31.1 km/h 96 % 0.0 in /  0 mm
10:12 6.9 °F /  -13.9 °C 6.3 °F /  -14.3 °C 1025.6 in /  34726.8 hPa WSW 4.8 mph /  7.7 km/h 19.3 mph /  31.1 km/h 96 % 0.0 in /  0 mm
10:17 7.0 °F /  -13.9 °C 6.4 °F /  -14.2 °C 1025.3 in /  34716.7 hPa SW 6.4 mph /  10.3 km/h 19.3 mph /  31.1 km/h 96 % 0.0 in /  0 mm
10:27 7.2 °F /  -13.8 °C 6.6 °F /  -14.1 °C 1025.3 in /  34716.7 hPa WSW 11.3 mph /  18.2 km/h 19.3 mph /  31.1 km/h 96 % 0.0 in /  0 mm
10:32 7.2 °F /  -13.8 °C 6.6 °F /  -14.1 °C 1025.3 in /  34716.7 hPa WSW 6.4 mph /  10.3 km/h 20.9 mph /  33.6 km/h 96 % 0.0 in /  0 mm
10:37 7.2 °F /  -13.8 °C 6.6 °F /  -14.1 °C 1025.3 in /  34716.7 hPa WSW 6.4 mph /  10.3 km/h 20.9 mph /  33.6 km/h 96 % 0.0 in /  0 mm
10:42 7.2 °F /  -13.8 °C 6.6 °F /  -14.1 °C 1025.3 in /  34716.7 hPa WSW 3.2 mph /  5.1 km/h 20.9 mph /  33.6 km/h 96 % 0.0 in /  0 mm
10:47 7.3 °F /  -13.7 °C 6.7 °F /  -14.1 °C 1025.6 in /  34726.8 hPa SW 3.2 mph /  5.1 km/h 17.7 mph /  28.5 km/h 96 % 0.0 in /  0 mm
10:57 7.3 °F /  -13.7 °C 6.9 °F /  -13.9 °C 1025.3 in /  34716.7 hPa SW 11.3 mph /  18.2 km/h 17.7 mph /  28.5 km/h 97 % 0.0 in /  0 mm
11:02 7.3 °F /  -13.7 °C 6.9 °F /  -13.9 °C 1025.3 in /  34716.7 hPa SSW 11.3 mph /  18.2 km/h 17.7 mph /  28.5 km/h 97 % 0.0 in /  0 mm
11:12 7.4 °F /  -13.7 °C 7.0 °F /  -13.9 °C 1025.6 in /  34726.8 hPa West 8.0 mph /  12.9 km/h 17.7 mph /  28.5 km/h 97 % 0.0 in /  0 mm
11:17 7.5 °F /  -13.6 °C 7.1 °F /  -13.8 °C 1025.6 in /  34726.8 hPa WSW 11.3 mph /  18.2 km/h 19.3 mph /  31.1 km/h 97 % 0.0 in /  0 mm
11:22 7.5 °F /  -13.6 °C 7.1 °F /  -13.8 °C 1025.3 in /  34716.7 hPa WSW 8.0 mph /  12.9 km/h 19.3 mph /  31.1 km/h 97 % 0.0 in /  0 mm
11:32 7.6 °F /  -13.6 °C 7.2 °F /  -13.8 °C 1025.6 in /  34726.8 hPa SW 4.8 mph /  7.7 km/h 19.3 mph /  31.1 km/h 97 % 0.0 in /  0 mm
11:37 7.6 °F /  -13.6 °C 7.2 °F /  -13.8 °C 1025.6 in /  34726.8 hPa SW 4.8 mph /  7.7 km/h 16.1 mph /  25.9 km/h 97 % 0.0 in /  0 mm
11:42 7.6 °F /  -13.6 °C 7.2 °F /  -13.8 °C 1025.6 in /  34726.8 hPa WSW 11.3 mph /  18.2 km/h 16.1 mph /  25.9 km/h 97 % 0.0 in /  0 mm
11:47 7.6 °F /  -13.6 °C 7.2 °F /  -13.8 °C 1025.6 in /  34726.8 hPa SW 4.8 mph /  7.7 km/h 16.1 mph /  25.9 km/h 97 % 0.0 in /  0 mm
11:52 7.7 °F /  -13.5 °C 7.3 °F /  -13.7 °C 1025.6 in /  34726.8 hPa WSW 9.7 mph /  15.6 km/h 14.5 mph /  23.3 km/h 97 % 0.0 in /  0 mm
11:57 7.7 °F /  -13.5 °C 7.3 °F /  -13.7 °C 1025.3 in /  34716.7 hPa SSW 4.8 mph /  7.7 km/h 12.9 mph /  20.8 km/h 97 % 0.0 in /  0 mm
12:02 7.7 °F /  -13.5 °C 7.3 °F /  -13.7 °C 1025.3 in /  34716.7 hPa SW 8.0 mph /  12.9 km/h 14.5 mph /  23.3 km/h 97 % 0.0 in /  0 mm
12:07 7.7 °F /  -13.5 °C 7.3 °F /  -13.7 °C 1025.3 in /  34716.7 hPa WSW 1.6 mph /  2.6 km/h 17.7 mph /  28.5 km/h 97 % 0.0 in /  0 mm
12:12 7.8 °F /  -13.4 °C 7.4 °F /  -13.7 °C 1025.3 in /  34716.7 hPa WSW 3.2 mph /  5.1 km/h 17.7 mph /  28.5 km/h 97 % 0.0 in /  0 mm
12:17 7.8 °F /  -13.4 °C 7.4 °F /  -13.7 °C 1025.3 in /  34716.7 hPa West 4.8 mph /  7.7 km/h 17.7 mph /  28.5 km/h 97 % 0.0 in /  0 mm
12:22 7.9 °F /  -13.4 °C 7.5 °F /  -13.6 °C 1025.3 in /  34716.7 hPa West 3.2 mph /  5.1 km/h 17.7 mph /  28.5 km/h 97 % 0.0 in /  0 mm
12:27 7.9 °F /  -13.4 °C 7.5 °F /  -13.6 °C 1024.9 in /  34703.1 hPa WSW 9.7 mph /  15.6 km/h 17.7 mph /  28.5 km/h 97 % 0.0 in /  0 mm
12:32 7.9 °F /  -13.4 °C 7.5 °F /  -13.6 °C 1024.9 in /  34703.1 hPa WSW 6.4 mph /  10.3 km/h 14.5 mph /  23.3 km/h 97 % 0.0 in /  0 mm
12:42 8.1 °F /  -13.3 °C 7.7 °F /  -13.5 °C 1024.9 in /  34703.1 hPa SW 6.4 mph /  10.3 km/h 14.5 mph /  23.3 km/h 97 % 0.0 in /  0 mm
12:47 8.1 °F /  -13.3 °C 7.7 °F /  -13.5 °C 1024.6 in /  34693 hPa WSW 8.0 mph /  12.9 km/h 14.5 mph /  23.3 km/h 97 % 0.0 in /  0 mm
12:52 8.2 °F /  -13.2 °C 7.8 °F /  -13.4 °C 1024.9 in /  34703.1 hPa WNW 4.8 mph /  7.7 km/h 14.5 mph /  23.3 km/h 97 % 0.0 in /  0 mm
12:57 8.3 °F /  -13.2 °C 7.9 °F /  -13.4 °C 1024.9 in /  34703.1 hPa WNW 8.0 mph /  12.9 km/h 14.5 mph /  23.3 km/h 97 % 0.0 in /  0 mm
13:02 8.3 °F /  -13.2 °C 7.9 °F /  -13.4 °C 1024.6 in /  34693 hPa West 4.8 mph /  7.7 km/h 14.5 mph /  23.3 km/h 97 % 0.0 in /  0 mm
13:07 8.3 °F /  -13.2 °C 7.9 °F /  -13.4 °C 1024.6 in /  34693 hPa SSW 3.2 mph /  5.1 km/h 16.1 mph /  25.9 km/h 97 % 0.0 in /  0 mm
13:12 8.3 °F /  -13.2 °C 7.9 °F /  -13.4 °C 1024.6 in /  34693 hPa WSW 3.2 mph /  5.1 km/h 16.1 mph /  25.9 km/h 97 % 0.0 in /  0 mm
13:17 8.3 °F /  -13.2 °C 7.9 °F /  -13.4 °C 1024.6 in /  34693 hPa SW 4.8 mph /  7.7 km/h 17.7 mph /  28.5 km/h 97 % 0.0 in /  0 mm
13:22 8.4 °F /  -13.1 °C 8.0 °F /  -13.3 °C 1024.3 in /  34682.8 hPa West 12.9 mph /  20.8 km/h 17.7 mph /  28.5 km/h 97 % 0.0 in /  0 mm
13:27 8.4 °F /  -13.1 °C 8.0 °F /  -13.3 °C 1024.3 in /  34682.8 hPa WSW 8.0 mph /  12.9 km/h 17.7 mph /  28.5 km/h 97 % 0.0 in /  0 mm
13:32 8.4 °F /  -13.1 °C 8.0 °F /  -13.3 °C 1024.3 in /  34682.8 hPa West 12.9 mph /  20.8 km/h 17.7 mph /  28.5 km/h 97 % 0.0 in /  0 mm
13:37 8.4 °F /  -13.1 °C 8.0 °F /  -13.3 °C 1024.3 in /  34682.8 hPa SW 9.7 mph /  15.6 km/h 19.3 mph /  31.1 km/h 97 % 0.0 in /  0 mm
13:42 8.5 °F /  -13.1 °C 8.1 °F /  -13.3 °C 1024.3 in /  34682.8 hPa SW 8.0 mph /  12.9 km/h 19.3 mph /  31.1 km/h 97 % 0.0 in /  0 mm
13:52 8.7 °F /  -12.9 °C 8.3 °F /  -13.2 °C 1023.9 in /  34669.3 hPa WSW 17.7 mph /  28.5 km/h 19.3 mph /  31.1 km/h 97 % 0.0 in /  0 mm
13:57 8.7 °F /  -12.9 °C 8.3 °F /  -13.2 °C 1023.9 in /  34669.3 hPa SW 9.7 mph /  15.6 km/h 17.7 mph /  28.5 km/h 97 % 0.0 in /  0 mm
14:02 8.8 °F /  -12.9 °C 8.3 °F /  -13.2 °C 1023.9 in /  34669.3 hPa West 8.0 mph /  12.9 km/h 17.7 mph /  28.5 km/h 97 % 0.0 in /  0 mm
14:07 8.8 °F /  -12.9 °C 8.3 °F /  -13.2 °C 1023.9 in /  34669.3 hPa SW 9.7 mph /  15.6 km/h 17.7 mph /  28.5 km/h 97 % 0.0 in /  0 mm
14:12 8.8 °F /  -12.9 °C 8.3 °F /  -13.2 °C 1023.9 in /  34669.3 hPa WSW 8.0 mph /  12.9 km/h 17.7 mph /  28.5 km/h 97 % 0.0 in /  0 mm
14:17 8.9 °F /  -12.8 °C 8.4 °F /  -13.1 °C 1023.9 in /  34669.3 hPa West 11.3 mph /  18.2 km/h 22.5 mph /  36.2 km/h 97 % 0.0 in /  0 mm
14:22 9.1 °F /  -12.7 °C 8.6 °F /  -13 °C 1023.6 in /  34659.1 hPa West 3.2 mph /  5.1 km/h 22.5 mph /  36.2 km/h 97 % 0.0 in /  0 mm
14:27 9.1 °F /  -12.7 °C 8.6 °F /  -13 °C 1023.6 in /  34659.1 hPa West 14.5 mph /  23.3 km/h 22.5 mph /  36.2 km/h 97 % 0.0 in /  0 mm
14:32 9.1 °F /  -12.7 °C 8.5 °F /  -13.1 °C 1023.6 in /  34659.1 hPa West 20.9 mph /  33.6 km/h 20.9 mph /  33.6 km/h 96 % 0.0 in /  0 mm
14:37 9.2 °F /  -12.7 °C 8.6 °F /  -13 °C 1023.6 in /  34659.1 hPa West 8.0 mph /  12.9 km/h 20.9 mph /  33.6 km/h 96 % 0.0 in /  0 mm
14:42 9.2 °F /  -12.7 °C 8.6 °F /  -13 °C 1023.6 in /  34659.1 hPa West 14.5 mph /  23.3 km/h 24.1 mph /  38.8 km/h 96 % 0.0 in /  0 mm
14:47 9.2 °F /  -12.7 °C 8.6 °F /  -13 °C 1023.6 in /  34659.1 hPa West 12.9 mph /  20.8 km/h 24.1 mph /  38.8 km/h 96 % 0.0 in /  0 mm
14:52 9.2 °F /  -12.7 °C 8.6 °F /  -13 °C 1023.6 in /  34659.1 hPa West 9.7 mph /  15.6 km/h 24.1 mph /  38.8 km/h 96 % 0.0 in /  0 mm
14:57 9.3 °F /  -12.6 °C 8.7 °F /  -12.9 °C 1023.2 in /  34645.6 hPa WNW 14.5 mph /  23.3 km/h 22.5 mph /  36.2 km/h 96 % 0.0 in /  0 mm
15:02 9.3 °F /  -12.6 °C 8.7 °F /  -12.9 °C 1023.2 in /  34645.6 hPa West 17.7 mph /  28.5 km/h 22.5 mph /  36.2 km/h 96 % 0.0 in /  0 mm
15:07 9.3 °F /  -12.6 °C 8.7 °F /  -12.9 °C 1023.2 in /  34645.6 hPa West 8.0 mph /  12.9 km/h 24.1 mph /  38.8 km/h 96 % 0.0 in /  0 mm
15:12 9.4 °F /  -12.6 °C 8.8 °F /  -12.9 °C 1023.2 in /  34645.6 hPa WSW 11.3 mph /  18.2 km/h 24.1 mph /  38.8 km/h 96 % 0.0 in /  0 mm
15:17 9.4 °F /  -12.6 °C 8.8 °F /  -12.9 °C 1023.2 in /  34645.6 hPa WSW 12.9 mph /  20.8 km/h 24.1 mph /  38.8 km/h 96 % 0.0 in /  0 mm
15:22 9.4 °F /  -12.6 °C 8.6 °F /  -13 °C 1023.2 in /  34645.6 hPa WNW 14.5 mph /  23.3 km/h 22.5 mph /  36.2 km/h 95 % 0.0 in /  0 mm
15:27 9.5 °F /  -12.5 °C 8.7 °F /  -12.9 °C 1023.6 in /  34659.1 hPa West 9.7 mph /  15.6 km/h 22.5 mph /  36.2 km/h 95 % 0.0 in /  0 mm
15:32 9.6 °F /  -12.4 °C 8.8 °F /  -12.9 °C 1023.6 in /  34659.1 hPa WSW 12.9 mph /  20.8 km/h 22.5 mph /  36.2 km/h 95 % 0.0 in /  0 mm
15:37 9.6 °F /  -12.4 °C 8.8 °F /  -12.9 °C 1023.6 in /  34659.1 hPa West 9.7 mph /  15.6 km/h 24.1 mph /  38.8 km/h 95 % 0.0 in /  0 mm
15:42 9.7 °F /  -12.4 °C 8.9 °F /  -12.8 °C 1023.6 in /  34659.1 hPa West 9.7 mph /  15.6 km/h 24.1 mph /  38.8 km/h 95 % 0.0 in /  0 mm
15:47 9.7 °F /  -12.4 °C 8.9 °F /  -12.8 °C 1023.6 in /  34659.1 hPa SW 9.7 mph /  15.6 km/h 24.1 mph /  38.8 km/h 95 % 0.0 in /  0 mm
15:52 9.7 °F /  -12.4 °C 8.9 °F /  -12.8 °C 1023.6 in /  34659.1 hPa WNW 16.1 mph /  25.9 km/h 22.5 mph /  36.2 km/h 95 % 0.0 in /  0 mm
15:57 9.7 °F /  -12.4 °C 8.9 °F /  -12.8 °C 1023.2 in /  34645.6 hPa West 17.7 mph /  28.5 km/h 22.5 mph /  36.2 km/h 95 % 0.0 in /  0 mm
16:02 9.7 °F /  -12.4 °C 8.9 °F /  -12.8 °C 1023.2 in /  34645.6 hPa West 9.7 mph /  15.6 km/h 22.5 mph /  36.2 km/h 95 % 0.0 in /  0 mm
16:07 9.7 °F /  -12.4 °C 8.9 °F /  -12.8 °C 1023.2 in /  34645.6 hPa SW 8.0 mph /  12.9 km/h 22.5 mph /  36.2 km/h 95 % 0.0 in /  0 mm
16:12 9.7 °F /  -12.4 °C 9.1 °F /  -12.7 °C 1023.2 in /  34645.6 hPa West 9.7 mph /  15.6 km/h 22.5 mph /  36.2 km/h 96 % 0.0 in /  0 mm
16:17 9.7 °F /  -12.4 °C 9.1 °F /  -12.7 °C 1023.2 in /  34645.6 hPa West 11.3 mph /  18.2 km/h 17.7 mph /  28.5 km/h 96 % 0.0 in /  0 mm
16:22 9.7 °F /  -12.4 °C 9.1 °F /  -12.7 °C 1023.2 in /  34645.6 hPa West 12.9 mph /  20.8 km/h 19.3 mph /  31.1 km/h 96 % 0.0 in /  0 mm
16:27 9.7 °F /  -12.4 °C 9.1 °F /  -12.7 °C 1023.2 in /  34645.6 hPa West 8.0 mph /  12.9 km/h 19.3 mph /  31.1 km/h 96 % 0.0 in /  0 mm
16:32 9.8 °F /  -12.3 °C 9.2 °F /  -12.7 °C 1023.2 in /  34645.6 hPa WSW 8.0 mph /  12.9 km/h 19.3 mph /  31.1 km/h 96 % 0.0 in /  0 mm
16:37 9.8 °F /  -12.3 °C 9.2 °F /  -12.7 °C 1023.2 in /  34645.6 hPa West 9.7 mph /  15.6 km/h 19.3 mph /  31.1 km/h 96 % 0.0 in /  0 mm
16:42 9.8 °F /  -12.3 °C 9.2 °F /  -12.7 °C 1023.2 in /  34645.6 hPa WSW 11.3 mph /  18.2 km/h 19.3 mph /  31.1 km/h 96 % 0.0 in /  0 mm
16:52 9.9 °F /  -12.3 °C 9.3 °F /  -12.6 °C 1023.2 in /  34645.6 hPa West 12.9 mph /  20.8 km/h 17.7 mph /  28.5 km/h 96 % 0.0 in /  0 mm
16:57 9.9 °F /  -12.3 °C 9.3 °F /  -12.6 °C 1023.2 in /  34645.6 hPa West 11.3 mph /  18.2 km/h 16.1 mph /  25.9 km/h 96 % 0.0 in /  0 mm
17:07 9.9 °F /  -12.3 °C 9.3 °F /  -12.6 °C 1023.2 in /  34645.6 hPa WSW 6.4 mph /  10.3 km/h 17.7 mph /  28.5 km/h 96 % 0.0 in /  0 mm
17:12 9.9 °F /  -12.3 °C 9.3 °F /  -12.6 °C 1023.2 in /  34645.6 hPa WSW 4.8 mph /  7.7 km/h 17.7 mph /  28.5 km/h 96 % 0.0 in /  0 mm
17:17 9.9 °F /  -12.3 °C 9.3 °F /  -12.6 °C 1023.2 in /  34645.6 hPa WSW 6.4 mph /  10.3 km/h 16.1 mph /  25.9 km/h 96 % 0.0 in /  0 mm
17:22 9.9 °F /  -12.3 °C 9.3 °F /  -12.6 °C 1023.2 in /  34645.6 hPa WSW 6.4 mph /  10.3 km/h 14.5 mph /  23.3 km/h 96 % 0.0 in /  0 mm
17:32 10.0 °F /  -12.2 °C 9.4 °F /  -12.6 °C 1023.2 in /  34645.6 hPa West 12.9 mph /  20.8 km/h 16.1 mph /  25.9 km/h 96 % 0.0 in /  0 mm
17:37 10.0 °F /  -12.2 °C 9.4 °F /  -12.6 °C 1023.2 in /  34645.6 hPa West 4.8 mph /  7.7 km/h 17.7 mph /  28.5 km/h 96 % 0.0 in /  0 mm
17:42 10.1 °F /  -12.2 °C 9.3 °F /  -12.6 °C 1023.2 in /  34645.6 hPa WNW 3.2 mph /  5.1 km/h 17.7 mph /  28.5 km/h 95 % 0.0 in /  0 mm
17:47 10.1 °F /  -12.2 °C 9.3 °F /  -12.6 °C 1023.2 in /  34645.6 hPa West 6.4 mph /  10.3 km/h 17.7 mph /  28.5 km/h 95 % 0.0 in /  0 mm
17:52 10.1 °F /  -12.2 °C 9.3 °F /  -12.6 °C 1023.6 in /  34659.1 hPa WSW 4.8 mph /  7.7 km/h 12.9 mph /  20.8 km/h 95 % 0.0 in /  0 mm
17:57 10.2 °F /  -12.1 °C 9.4 °F /  -12.6 °C 1023.6 in /  34659.1 hPa West 4.8 mph /  7.7 km/h 11.3 mph /  18.2 km/h 95 % 0.0 in /  0 mm
18:02 10.2 °F /  -12.1 °C 9.4 °F /  -12.6 °C 1023.6 in /  34659.1 hPa West 3.2 mph /  5.1 km/h 9.7 mph /  15.6 km/h 95 % 0.0 in /  0 mm
18:07 10.3 °F /  -12.1 °C 9.5 °F /  -12.5 °C 1023.6 in /  34659.1 hPa WNW 4.8 mph /  7.7 km/h 9.7 mph /  15.6 km/h 95 % 0.0 in /  0 mm
18:12 10.3 °F /  -12.1 °C 9.4 °F /  -12.6 °C 1023.6 in /  34659.1 hPa West 6.4 mph /  10.3 km/h 14.5 mph /  23.3 km/h 94 % 0.0 in /  0 mm
18:17 10.4 °F /  -12 °C 9.5 °F /  -12.5 °C 1023.6 in /  34659.1 hPa WNW 6.4 mph /  10.3 km/h 16.1 mph /  25.9 km/h 94 % 0.0 in /  0 mm
18:22 10.4 °F /  -12 °C 9.5 °F /  -12.5 °C 1023.6 in /  34659.1 hPa West 6.4 mph /  10.3 km/h 16.1 mph /  25.9 km/h 94 % 0.0 in /  0 mm
18:27 10.4 °F /  -12 °C 9.3 °F /  -12.6 °C 1023.6 in /  34659.1 hPa WNW 12.9 mph /  20.8 km/h 16.1 mph /  25.9 km/h 93 % 0.0 in /  0 mm
18:32 10.5 °F /  -11.9 °C 9.4 °F /  -12.6 °C 1023.6 in /  34659.1 hPa West 11.3 mph /  18.2 km/h 14.5 mph /  23.3 km/h 93 % 0.0 in /  0 mm
18:42 10.5 °F /  -11.9 °C 9.4 °F /  -12.6 °C 1023.6 in /  34659.1 hPa West 11.3 mph /  18.2 km/h 14.5 mph /  23.3 km/h 93 % 0.0 in /  0 mm
18:47 10.5 °F /  -11.9 °C 9.4 °F /  -12.6 °C 1023.9 in /  34669.3 hPa West 14.5 mph /  23.3 km/h 20.9 mph /  33.6 km/h 93 % 0.0 in /  0 mm
18:52 10.6 °F /  -11.9 °C 9.5 °F /  -12.5 °C 1023.6 in /  34659.1 hPa West 9.7 mph /  15.6 km/h 20.9 mph /  33.6 km/h 93 % 0.0 in /  0 mm
18:57 10.6 °F /  -11.9 °C 9.5 °F /  -12.5 °C 1023.9 in /  34669.3 hPa WSW 4.8 mph /  7.7 km/h 20.9 mph /  33.6 km/h 93 % 0.0 in /  0 mm
19:02 10.6 °F /  -11.9 °C 9.5 °F /  -12.5 °C 1023.9 in /  34669.3 hPa WNW 8.0 mph /  12.9 km/h 20.9 mph /  33.6 km/h 93 % 0.0 in /  0 mm
19:07 10.6 °F /  -11.9 °C 9.5 °F /  -12.5 °C 1023.9 in /  34669.3 hPa West 11.3 mph /  18.2 km/h 19.3 mph /  31.1 km/h 93 % 0.0 in /  0 mm
19:12 10.5 °F /  -11.9 °C 9.4 °F /  -12.6 °C 1023.9 in /  34669.3 hPa WNW 6.4 mph /  10.3 km/h 19.3 mph /  31.1 km/h 93 % 0.0 in /  0 mm
19:17 10.4 °F /  -12 °C 9.3 °F /  -12.6 °C 1024.3 in /  34682.8 hPa West 11.3 mph /  18.2 km/h 19.3 mph /  31.1 km/h 93 % 0.0 in /  0 mm
19:22 10.4 °F /  -12 °C 9.5 °F /  -12.5 °C 1024.3 in /  34682.8 hPa WNW 6.4 mph /  10.3 km/h 17.7 mph /  28.5 km/h 94 % 0.3 in /  7.62 mm
19:27 10.3 °F /  -12.1 °C 9.4 °F /  -12.6 °C 1024.3 in /  34682.8 hPa WNW 6.4 mph /  10.3 km/h 12.9 mph /  20.8 km/h 94 % 0.3 in /  7.62 mm
19:32 10.3 °F /  -12.1 °C 9.4 °F /  -12.6 °C 1024.3 in /  34682.8 hPa WNW 6.4 mph /  10.3 km/h 16.1 mph /  25.9 km/h 94 % 0.5 in /  12.7 mm
19:37 10.3 °F /  -12.1 °C 9.4 °F /  -12.6 °C 1024.3 in /  34682.8 hPa WNW 3.2 mph /  5.1 km/h 16.1 mph /  25.9 km/h 94 % 0.5 in /  12.7 mm
19:42 10.3 °F /  -12.1 °C 9.4 °F /  -12.6 °C 1024.3 in /  34682.8 hPa WNW 6.4 mph /  10.3 km/h 16.1 mph /  25.9 km/h 94 % 0.5 in /  12.7 mm
19:47 10.4 °F /  -12 °C 9.5 °F /  -12.5 °C 1024.3 in /  34682.8 hPa West 9.7 mph /  15.6 km/h 16.1 mph /  25.9 km/h 94 % 0.5 in /  12.7 mm
19:52 10.4 °F /  -12 °C 9.5 °F /  -12.5 °C 1024.3 in /  34682.8 hPa WNW 6.4 mph /  10.3 km/h 16.1 mph /  25.9 km/h 94 % 0.5 in /  12.7 mm
19:57 10.5 °F /  -11.9 °C 9.4 °F /  -12.6 °C 1024.3 in /  34682.8 hPa WNW 6.4 mph /  10.3 km/h 16.1 mph /  25.9 km/h 93 % 0.5 in /  12.7 mm
20:02 10.5 °F /  -11.9 °C 9.4 °F /  -12.6 °C 1024.3 in /  34682.8 hPa WNW 9.7 mph /  15.6 km/h 16.1 mph /  25.9 km/h 93 % 0.5 in /  12.7 mm
20:07 10.5 °F /  -11.9 °C 9.4 °F /  -12.6 °C 1024.3 in /  34682.8 hPa WNW 6.4 mph /  10.3 km/h 16.1 mph /  25.9 km/h 93 % 0.5 in /  12.7 mm
20:12 10.5 °F /  -11.9 °C 9.4 °F /  -12.6 °C 1024.3 in /  34682.8 hPa West 3.2 mph /  5.1 km/h 14.5 mph /  23.3 km/h 93 % 0.5 in /  12.7 mm
20:17 10.5 °F /  -11.9 °C 9.4 °F /  -12.6 °C 1024.3 in /  34682.8 hPa WNW 4.8 mph /  7.7 km/h 14.5 mph /  23.3 km/h 93 % 0.5 in /  12.7 mm
20:22 10.4 °F /  -12 °C 9.2 °F /  -12.7 °C 1024.3 in /  34682.8 hPa WNW 4.8 mph /  7.7 km/h 14.5 mph /  23.3 km/h 92 % 0.3 in /  7.62 mm
20:32 10.4 °F /  -12 °C 9.3 °F /  -12.6 °C 1024.6 in /  34693 hPa Calm   11.3 mph /  18.2 km/h 93 % 0.0 in /  0 mm
20:37 10.4 °F /  -12 °C 9.3 °F /  -12.6 °C 1024.3 in /  34682.8 hPa WNW 4.8 mph /  7.7 km/h 11.3 mph /  18.2 km/h 93 % 0.0 in /  0 mm
20:42 10.4 °F /  -12 °C 9.3 °F /  -12.6 °C 1024.3 in /  34682.8 hPa West 3.2 mph /  5.1 km/h 11.3 mph /  18.2 km/h 93 % 0.0 in /  0 mm
20:47 10.3 °F /  -12.1 °C 9.2 °F /  -12.7 °C 1024.3 in /  34682.8 hPa WSW 1.6 mph /  2.6 km/h 11.3 mph /  18.2 km/h 93 % 0.0 in /  0 mm
20:52 10.3 °F /  -12.1 °C 9.2 °F /  -12.7 °C 1024.3 in /  34682.8 hPa Calm   8.0 mph /  12.9 km/h 93 % 0.0 in /  0 mm
21:02 10.3 °F /  -12.1 °C 9.2 °F /  -12.7 °C 1024.6 in /  34693 hPa WNW 3.2 mph /  5.1 km/h 6.4 mph /  10.3 km/h 93 % 0.0 in /  0 mm
21:12 10.3 °F /  -12.1 °C 9.2 °F /  -12.7 °C 1024.6 in /  34693 hPa West 1.6 mph /  2.6 km/h 8.0 mph /  12.9 km/h 93 % 0.0 in /  0 mm
21:17 10.2 °F /  -12.1 °C 9.1 °F /  -12.7 °C 1024.6 in /  34693 hPa West 1.6 mph /  2.6 km/h 8.0 mph /  12.9 km/h 93 % 0.0 in /  0 mm
21:22 10.2 °F /  -12.1 °C 9.1 °F /  -12.7 °C 1024.6 in /  34693 hPa West 1.6 mph /  2.6 km/h 8.0 mph /  12.9 km/h 93 % 0.0 in /  0 mm
21:27 10.2 °F /  -12.1 °C 9.1 °F /  -12.7 °C 1024.6 in /  34693 hPa WNW 4.8 mph /  7.7 km/h 9.7 mph /  15.6 km/h 93 % 0.0 in /  0 mm
21:32 10.3 °F /  -12.1 °C 9.2 °F /  -12.7 °C 1024.6 in /  34693 hPa WNW 6.4 mph /  10.3 km/h 9.7 mph /  15.6 km/h 93 % 0.0 in /  0 mm
21:37 10.4 °F /  -12 °C 9.3 °F /  -12.6 °C 1024.6 in /  34693 hPa West 9.7 mph /  15.6 km/h 11.3 mph /  18.2 km/h 93 % 0.0 in /  0 mm
21:42 10.4 °F /  -12 °C 9.3 °F /  -12.6 °C 1024.6 in /  34693 hPa WNW 4.8 mph /  7.7 km/h 12.9 mph /  20.8 km/h 93 % 0.0 in /  0 mm
21:47 10.3 °F /  -12.1 °C 9.2 °F /  -12.7 °C 1024.6 in /  34693 hPa NW 8.0 mph /  12.9 km/h 12.9 mph /  20.8 km/h 93 % 0.0 in /  0 mm
21:52 10.3 °F /  -12.1 °C 9.2 °F /  -12.7 °C 1024.9 in /  34703.1 hPa WNW 3.2 mph /  5.1 km/h 12.9 mph /  20.8 km/h 93 % 0.0 in /  0 mm
21:57 10.3 °F /  -12.1 °C 9.1 °F /  -12.7 °C 1024.9 in /  34703.1 hPa WNW 6.4 mph /  10.3 km/h 12.9 mph /  20.8 km/h 92 % 0.0 in /  0 mm
22:02 10.2 °F /  -12.1 °C 8.6 °F /  -13 °C 1024.9 in /  34703.1 hPa NNW 6.4 mph /  10.3 km/h 16.1 mph /  25.9 km/h 90 % 0.0 in /  0 mm
22:07 10.2 °F /  -12.1 °C 8.3 °F /  -13.2 °C 1024.9 in /  34703.1 hPa NW 4.8 mph /  7.7 km/h 19.3 mph /  31.1 km/h 88 % 0.0 in /  0 mm
22:12 10.1 °F /  -12.2 °C 8.0 °F /  -13.3 °C 1024.6 in /  34693 hPa NW 8.0 mph /  12.9 km/h 19.3 mph /  31.1 km/h 87 % 0.0 in /  0 mm
22:17 10.1 °F /  -12.2 °C 8.0 °F /  -13.3 °C 1024.6 in /  34693 hPa NW 6.4 mph /  10.3 km/h 19.3 mph /  31.1 km/h 87 % 0.0 in /  0 mm
22:22 10.1 °F /  -12.2 °C 8.0 °F /  -13.3 °C 1024.6 in /  34693 hPa NW 1.6 mph /  2.6 km/h 19.3 mph /  31.1 km/h 87 % 0.0 in /  0 mm
22:27 10.0 °F /  -12.2 °C 7.9 °F /  -13.4 °C 1024.6 in /  34693 hPa WNW 4.8 mph /  7.7 km/h 19.3 mph /  31.1 km/h 87 % 0.0 in /  0 mm
22:37 9.9 °F /  -12.3 °C 7.7 °F /  -13.5 °C 1024.6 in /  34693 hPa NNW 4.8 mph /  7.7 km/h 16.1 mph /  25.9 km/h 86 % 0.0 in /  0 mm
22:42 9.8 °F /  -12.3 °C 7.7 °F /  -13.5 °C 1024.6 in /  34693 hPa NW 4.8 mph /  7.7 km/h 16.1 mph /  25.9 km/h 87 % 0.0 in /  0 mm
22:47 9.7 °F /  -12.4 °C 7.6 °F /  -13.6 °C 1024.6 in /  34693 hPa WNW 6.4 mph /  10.3 km/h 16.1 mph /  25.9 km/h 87 % 0.0 in /  0 mm
22:52 9.7 °F /  -12.4 °C 7.8 °F /  -13.4 °C 1024.6 in /  34693 hPa WNW 6.4 mph /  10.3 km/h 16.1 mph /  25.9 km/h 88 % 0.0 in /  0 mm
22:57 9.6 °F /  -12.4 °C 7.7 °F /  -13.5 °C 1024.6 in /  34693 hPa NW 3.2 mph /  5.1 km/h 12.9 mph /  20.8 km/h 88 % 0.0 in /  0 mm
23:02 9.5 °F /  -12.5 °C 7.8 °F /  -13.4 °C 1024.6 in /  34693 hPa WNW 6.4 mph /  10.3 km/h 12.9 mph /  20.8 km/h 89 % 0.0 in /  0 mm
23:07 9.4 °F /  -12.6 °C 7.7 °F /  -13.5 °C 1024.6 in /  34693 hPa NW 9.7 mph /  15.6 km/h 11.3 mph /  18.2 km/h 89 % 0.0 in /  0 mm
23:12 9.4 °F /  -12.6 °C 7.7 °F /  -13.5 °C 1024.6 in /  34693 hPa NW 4.8 mph /  7.7 km/h 17.7 mph /  28.5 km/h 89 % 0.0 in /  0 mm
23:22 9.4 °F /  -12.6 °C 7.5 °F /  -13.6 °C 1024.6 in /  34693 hPa West 1.6 mph /  2.6 km/h 17.7 mph /  28.5 km/h 88 % 0.0 in /  0 mm
23:27 9.3 °F /  -12.6 °C 7.4 °F /  -13.7 °C 1024.6 in /  34693 hPa NW 6.4 mph /  10.3 km/h 12.9 mph /  20.8 km/h 88 % 0.0 in /  0 mm
23:32 9.3 °F /  -12.6 °C 7.4 °F /  -13.7 °C 1024.6 in /  34693 hPa WNW 8.0 mph /  12.9 km/h 17.7 mph /  28.5 km/h 88 % 0.0 in /  0 mm
23:37 9.3 °F /  -12.6 °C 7.2 °F /  -13.8 °C 1024.6 in /  34693 hPa NW 3.2 mph /  5.1 km/h 17.7 mph /  28.5 km/h 87 % 0.0 in /  0 mm
23:42 9.2 °F /  -12.7 °C 7.1 °F /  -13.8 °C 1024.6 in /  34693 hPa WNW 3.2 mph /  5.1 km/h 17.7 mph /  28.5 km/h 87 % 0.0 in /  0 mm
23:47 9.2 °F /  -12.7 °C 7.0 °F /  -13.9 °C 1024.6 in /  34693 hPa WNW 11.3 mph /  18.2 km/h 14.5 mph /  23.3 km/h 86 % 0.0 in /  0 mm
23:52 9.2 °F /  -12.7 °C 6.8 °F /  -14 °C 1024.6 in /  34693 hPa WNW 8.0 mph /  12.9 km/h 14.5 mph /  23.3 km/h 85 % 0.0 in /  0 mm
23:57 9.2 °F /  -12.7 °C 6.8 °F /  -14 °C 1024.6 in /  34693 hPa NW 6.4 mph /  10.3 km/h 14.5 mph /  23.3 km/h 85 % 0.0 in /  0 mm
Meteo18
Compliments of Weather Underground - 4 mb

Script developed by  Jim McMurry - jmcmurry@mwt.net Adapted for the template by  Wim van der Kuil - Leuven-Template.eu

You find our weather info also at:

European Weather Network

Weather Underground

Equipment we use:

Weather-station
Davis Vue

Weather-program
Meteobridge

Weather-server
Raspberry PI 2 B+

Provider
1 and 1

Davis Vue

Meteobridge

Raspberry PI 2 B+

1 and 1